Time;durP1;ratioP1;P1;durP2;ratioP2;P2;SDS_P1;SDS_P2;PMS_P1;PMS_P2;Temp;Humidity;BMP_temperature;BMP_pressure;BME280_temperature;BME280_humidity;BME280_pressure;Samples;Min_cycle;Max_cycle;Signal;HPM_P1;HPM_P2
2021/01/05 00:00:51;;;;;;;11.73;10.48;;;;;;;6.37;64.36;101930.41;4998523;28;20044;-85
2021/01/05 00:03:17;;;;;;;19.60;18.00;;;;;;;6.50;63.86;101935.53;4999851;28;20038;-87
2021/01/05 00:05:42;;;;;;;18.88;17.42;;;;;;;6.42;64.05;101925.41;4997575;28;20579;-82
2021/01/05 00:08:08;;;;;;;13.70;12.70;;;;;;;6.41;64.04;101933.66;4998382;28;20057;-86
2021/01/05 00:10:33;;;;;;;18.00;16.40;;;;;;;6.25;64.64;101931.53;4997975;28;20113;-83
2021/01/05 00:12:59;;;;;;;12.85;11.20;;;;;;;6.19;64.35;101915.91;4998806;28;20123;-82
2021/01/05 00:15:24;;;;;;;16.67;15.07;;;;;;;6.64;63.84;101939.63;4980996;28;20128;-85
2021/01/05 00:17:50;;;;;;;11.48;10.48;;;;;;;6.37;64.18;101922.31;4996249;28;20516;-82
2021/01/05 00:20:22;;;;;;;11.10;10.00;;;;;;;6.35;63.98;101920.72;4997829;28;20038;-85
2021/01/05 00:22:48;;;;;;;10.98;9.80;;;;;;;6.33;63.94;101931.69;5001415;28;20080;-88
2021/01/05 00:25:18;;;;;;;12.73;11.52;;;;;;;6.58;63.82;101945.63;5002201;28;20029;-84
2021/01/05 00:27:47;;;;;;;15.23;13.68;;;;;;;6.64;63.55;101928.81;5001731;28;20048;-85
2021/01/05 00:30:16;;;;;;;17.00;15.48;;;;;;;6.57;63.98;101942.06;4983960;28;20040;-84
2021/01/05 00:32:43;;;;;;;11.07;10.18;;;;;;;6.17;64.37;101934.09;5002673;28;20083;-85
2021/01/05 00:35:11;;;;;;;16.38;15.13;;;;;;;6.35;64.32;101928.84;5002092;28;20038;-84
2021/01/05 00:37:36;;;;;;;16.67;15.18;;;;;;;6.47;63.84;101940.38;5003804;28;20783;-84
2021/01/05 00:40:03;;;;;;;15.65;14.32;;;;;;;6.32;64.26;101940.78;5000919;28;20034;-84
2021/01/05 00:42:29;;;;;;;15.50;14.10;;;;;;;6.61;63.90;101938.09;5001741;28;20033;-84
2021/01/05 00:44:54;;;;;;;15.88;14.50;;;;;;;6.46;64.02;101934.13;5000193;28;20053;-84
2021/01/05 00:47:19;;;;;;;14.90;11.00;;;;;;;6.22;64.45;101924.56;5000845;28;20037;-82
2021/01/05 00:49:45;;;;;;;12.88;11.68;;;;;;;6.33;64.28;101941.63;5000606;28;20038;-87
2021/01/05 00:52:10;;;;;;;15.65;14.13;;;;;;;6.59;64.22;101937.38;5001813;28;20045;-85
2021/01/05 00:54:36;;;;;;;15.23;13.82;;;;;;;6.74;63.38;101943.19;5002938;28;20488;-86
2021/01/05 00:57:09;;;;;;;19.08;17.38;;;;;;;6.71;63.61;101948.06;4985606;28;20033;-83
2021/01/05 00:59:35;;;;;;;15.02;12.82;;;;;;;6.58;63.72;101954.59;5004617;28;20036;-83
2021/01/05 01:02:01;;;;;;;16.23;14.90;;;;;;;6.87;63.11;101940.19;5006251;28;20796;-85
2021/01/05 01:04:27;;;;;;;20.58;18.83;;;;;;;6.75;63.38;101938.63;5014002;28;20128;-85
2021/01/05 01:06:53;;;;;;;19.42;17.83;;;;;;;6.37;64.02;101938.50;5012426;28;20063;-90
2021/01/05 01:09:19;;;;;;;15.60;14.05;;;;;;;6.31;64.50;101930.97;5010943;28;20026;-85
2021/01/05 01:12:13;;;;;;;13.27;12.05;;;;;;;6.66;63.78;101944.91;4992013;28;20034;-84
2021/01/05 01:14:41;;;;;;;17.15;15.60;;;;;;;6.36;64.47;101939.50;5010045;28;20034;-87
2021/01/05 01:17:08;;;;;;;11.60;10.50;;;;;;;6.42;64.54;101933.53;5008053;28;20026;-84
2021/01/05 01:19:33;;;;;;;10.98;10.05;;;;;;;6.10;65.04;101936.50;5008248;28;20040;-85
2021/01/05 01:21:59;;;;;;;15.40;11.38;;;;;;;6.29;64.33;101932.97;5007989;28;20507;-88
2021/01/05 01:24:25;;;;;;;11.32;10.00;;;;;;;6.33;64.33;101947.88;5007668;28;20072;-85
2021/01/05 01:26:51;;;;;;;10.82;9.82;;;;;;;6.57;63.87;101943.94;5016365;28;20034;-85
2021/01/05 01:29:21;;;;;;;14.68;13.15;;;;;;;6.15;64.83;101931.53;5006682;28;20100;-85
2021/01/05 01:31:47;;;;;;;12.83;11.67;;;;;;;6.55;64.03;101935.09;5009067;28;20101;-86
2021/01/05 01:34:17;;;;;;;12.57;11.48;;;;;;;6.13;64.72;101935.38;5007392;28;20121;-84
2021/01/05 01:36:56;;;;;;;11.30;10.37;;;;;;;6.31;64.19;101913.94;5011205;28;20121;-84
2021/01/05 01:39:23;;;;;;;11.77;10.60;;;;;;;6.30;64.65;101934.66;5007822;28;20037;-83
2021/01/05 01:42:19;;;;;;;13.35;12.00;;;;;;;6.62;63.74;101944.34;5011608;28;20823;-87
2021/01/05 01:44:46;;;;;;;8.77;8.00;;;;;;;6.65;63.51;101932.41;4990052;28;20042;-85
2021/01/05 01:47:31;;;;;;;11.55;10.55;;;;;;;6.61;63.22;101938.09;5011388;28;20026;-84
2021/01/05 01:50:08;;;;;;;12.25;11.13;;;;;;;6.76;63.50;101949.31;5007903;28;20452;-86
2021/01/05 01:52:53;;;;;;;13.40;12.23;;;;;;;6.62;63.76;101944.34;5007707;28;20416;-85
2021/01/05 01:55:28;;;;;;;19.98;18.48;;;;;;;6.51;64.37;101947.19;5007707;28;20045;-84
2021/01/05 01:58:16;;;;;;;16.98;15.35;;;;;;;6.43;64.26;101939.81;5007690;28;20109;-87
2021/01/05 02:00:52;;;;;;;20.52;19.10;;;;;;;6.55;64.08;101933.25;5008901;28;20116;-86
2021/01/05 02:03:32;;;;;;;16.30;14.85;;;;;;;6.30;64.15;101931.97;5009625;28;20029;-86
2021/01/05 02:06:25;;;;;;;23.02;21.15;;;;;;;6.55;64.04;101933.25;5007973;28;20030;-85
2021/01/05 02:09:20;;;;;;;16.20;14.73;;;;;;;6.48;63.81;101942.94;5008735;28;20038;-86
2021/01/05 02:12:06;;;;;;;17.17;15.65;;;;;;;6.50;63.66;101929.28;5007782;28;20416;-86
2021/01/05 02:14:56;;;;;;;24.70;22.90;;;;;;;6.67;63.46;101936.66;5016310;28;20025;-86
2021/01/05 02:17:39;;;;;;;17.90;16.40;;;;;;;6.73;63.13;101935.22;5007455;28;20033;-88
2021/01/05 02:20:32;;;;;;;19.73;18.08;;;;;;;6.45;63.73;101930.53;5008006;28;20054;-88
2021/01/05 02:23:36;;;;;;;20.50;18.80;;;;;;;6.56;63.80;101928.69;5008426;28;20033;-87
2021/01/05 02:26:08;;;;;;;20.33;18.70;;;;;;;6.31;64.20;101927.44;5004888;28;20184;-87
2021/01/05 02:28:40;;;;;;;18.75;17.30;;;;;;;6.57;63.53;101916.91;5007718;28;20034;-86
2021/01/05 02:31:25;;;;;;;20.90;19.40;;;;;;;6.53;63.88;101920.88;5007718;28;20026;-87
2021/01/05 02:34:05;;;;;;;16.67;15.35;;;;;;;6.54;63.81;101922.59;4975053;28;20034;-86
2021/01/05 02:36:52;;;;;;;17.92;16.52;;;;;;;6.55;63.51;101916.19;5005955;28;20042;-86
2021/01/05 02:39:55;;;;;;;21.38;19.95;;;;;;;6.79;62.99;101915.72;5008464;28;20120;-87
2021/01/05 02:42:51;;;;;;;17.45;16.05;;;;;;;6.77;63.08;101915.03;5007709;28;20045;-86
2021/01/05 02:45:26;;;;;;;24.58;22.77;;;;;;;6.50;63.47;101916.59;5007021;28;20044;-87
2021/01/05 02:48:28;;;;;;;17.90;16.65;;;;;;;6.73;63.38;101917.16;5009154;28;20088;-88
2021/01/05 02:51:16;;;;;;;20.63;18.98;;;;;;;6.49;63.97;101919.44;5007080;28;20034;-86
2021/01/05 02:54:20;;;;;;;20.15;18.75;;;;;;;6.75;63.07;101912.47;5008146;28;20037;-87
2021/01/05 02:57:01;;;;;;;25.27;23.30;;;;;;;6.84;62.89;101912.59;5011703;28;20384;-89
2021/01/05 02:59:48;;;;;;;27.25;25.25;;;;;;;6.96;62.40;101904.16;5005093;28;20053;-89
2021/01/05 03:02:35;;;;;;;20.40;18.88;;;;;;;6.40;63.84;101913.06;5010792;28;20506;-85
2021/01/05 03:05:05;;;;;;;19.20;17.80;;;;;;;6.32;64.02;101907.50;5007886;28;20193;-87
2021/01/05 03:07:31;;;;;;;20.17;18.57;;;;;;;6.42;63.88;101911.91;5008729;28;20030;-86
2021/01/05 03:09:59;;;;;;;19.15;17.77;;;;;;;6.63;63.50;101903.66;5006837;28;20483;-87
2021/01/05 03:12:59;;;;;;;19.95;18.55;;;;;;;6.72;63.26;101909.19;5007636;28;20030;-88
2021/01/05 03:15:48;;;;;;;30.45;28.25;;;;;;;6.92;62.63;101908.16;5007096;28;20103;-85
2021/01/05 03:18:35;;;;;;;33.25;31.15;;;;;;;6.74;63.50;101909.91;5027649;28;20040;-87
2021/01/05 03:21:07;;;;;;;17.65;16.50;;;;;;;6.52;63.81;101911.06;5002320;28;20092;-88
2021/01/05 03:23:34;;;;;;;26.90;25.05;;;;;;;6.32;64.39;101907.50;5012729;28;20066;-85
2021/01/05 03:26:05;;;;;;;23.10;21.40;;;;;;;6.52;63.73;101913.75;5005681;28;20045;-84
2021/01/05 03:28:32;;;;;;;18.58;17.27;;;;;;;6.43;63.99;101910.09;5008115;28;20065;-88
2021/01/05 03:31:16;;;;;;;17.98;16.13;;;;;;;6.98;62.73;101910.28;5005123;28;20113;-85
2021/01/05 03:33:41;;;;;;;17.73;16.42;;;;;;;6.51;64.13;101907.50;5003926;28;20041;-88
2021/01/05 03:36:08;;;;;;;20.77;19.27;;;;;;;6.67;63.20;101897.97;5005935;28;20042;-87
2021/01/05 03:38:33;;;;;;;20.38;19.00;;;;;;;6.45;64.18;101905.38;5006074;28;20217;-88
2021/01/05 03:41:02;;;;;;;13.68;12.57;;;;;;;6.90;62.98;101901.19;4975383;28;20135;-88
2021/01/05 03:43:27;;;;;;;13.25;12.18;;;;;;;6.62;63.82;101909.22;4974073;28;20096;-86
2021/01/05 03:45:52;;;;;;;21.60;19.90;;;;;;;6.76;63.59;101900.63;5004179;28;20034;-87
2021/01/05 03:48:18;;;;;;;15.25;13.95;;;;;;;6.94;63.06;101891.81;5009755;28;20535;-87
2021/01/05 03:50:43;;;;;;;13.48;12.48;;;;;;;6.63;63.97;101905.53;5005259;28;20038;-87
2021/01/05 03:53:09;;;;;;;17.08;15.80;;;;;;;6.45;64.68;101899.97;5006585;28;20416;-87
2021/01/05 03:55:34;;;;;;;16.10;14.80;;;;;;;6.44;64.92;101901.84;5008169;28;20053;-89
2021/01/05 03:57:59;;;;;;;14.60;13.50;;;;;;;6.52;64.57;101905.66;5001426;28;20025;-88
2021/01/05 04:00:28;;;;;;;18.08;16.65;;;;;;;6.76;64.19;101902.50;5009136;28;20033;-87
2021/01/05 04:02:55;;;;;;;19.45;18.05;;;;;;;7.01;63.48;101901.00;5006145;28;20037;-87
2021/01/05 04:05:22;;;;;;;13.63;12.48;;;;;;;6.84;64.18;101888.25;5022185;28;20041;-89
2021/01/05 04:07:47;;;;;;;14.57;13.45;;;;;;;6.71;64.14;101893.97;4973653;28;20092;-86
2021/01/05 04:10:13;;;;;;;12.68;11.57;;;;;;;6.95;63.73;101896.19;5006053;28;20030;-90
2021/01/05 04:12:39;;;;;;;13.55;12.38;;;;;;;6.61;63.99;101886.75;4988976;28;20078;-88
2021/01/05 04:15:07;;;;;;;16.73;15.52;;;;;;;6.76;64.55;101887.13;5005473;28;20034;-87
2021/01/05 04:17:33;;;;;;;10.93;9.82;;;;;;;6.50;64.70;101883.34;5022259;28;20499;-87
2021/01/05 04:19:58;;;;;;;10.75;9.95;;;;;;;6.69;64.34;101886.03;4989490;28;20113;-86
2021/01/05 04:22:24;;;;;;;11.30;10.18;;;;;;;6.51;64.83;101866.13;5006503;28;20034;-85
2021/01/05 04:24:49;;;;;;;12.50;11.15;;;;;;;6.60;64.62;101887.72;5005668;28;20697;-86
2021/01/05 04:27:14;;;;;;;11.70;10.60;;;;;;;6.73;64.50;101876.59;5006553;28;20026;-89
2021/01/05 04:29:40;;;;;;;11.15;9.98;;;;;;;6.51;65.22;101898.56;5006188;28;20526;-87
2021/01/05 04:32:05;;;;;;;12.15;10.95;;;;;;;6.33;65.44;101880.34;5004184;28;20030;-88
2021/01/05 04:34:31;;;;;;;11.77;10.82;;;;;;;6.62;65.06;101879.47;5021727;28;20026;-88
2021/01/05 04:36:56;;;;;;;13.82;12.82;;;;;;;6.64;64.78;101872.06;5004859;28;20053;-88
2021/01/05 04:39:21;;;;;;;10.50;9.70;;;;;;;6.77;64.65;101879.88;4989683;28;20480;-87
2021/01/05 04:41:54;;;;;;;9.20;8.07;;;;;;;6.95;64.08;101888.94;5004884;28;20049;-88
2021/01/05 04:44:24;;;;;;;12.35;11.35;;;;;;;6.72;64.93;101884.84;5007034;28;20759;-85
2021/01/05 04:46:56;;;;;;;15.93;14.82;;;;;;;6.41;65.49;101885.91;5005533;28;20053;-85
2021/01/05 04:49:46;;;;;;;17.75;16.38;;;;;;;6.44;65.43;101882.91;5006498;28;20026;-85
2021/01/05 04:52:15;;;;;;;13.05;11.98;;;;;;;6.53;65.06;101875.78;5005391;28;20554;-86
2021/01/05 04:54:49;;;;;;;17.20;15.95;;;;;;;6.57;65.08;101879.91;5007232;28;20025;-88
2021/01/05 04:57:17;;;;;;;15.45;14.18;;;;;;;6.44;65.69;101877.50;5021392;28;20034;-87
2021/01/05 04:59:47;;;;;;;19.52;18.23;;;;;;;6.64;65.04;101880.16;5006206;28;20124;-90
2021/01/05 05:02:28;;;;;;;15.20;13.93;;;;;;;6.84;64.55;101880.16;5006272;28;20033;-88
2021/01/05 05:04:59;;;;;;;19.08;17.77;;;;;;;6.62;65.30;101883.03;5008014;28;20776;-90
2021/01/05 05:07:31;;;;;;;17.27;16.17;;;;;;;6.53;65.54;101889.28;5005413;28;20034;-89
2021/01/05 05:10:13;;;;;;;18.85;17.25;;;;;;;6.48;65.40;101885.34;5007756;28;20542;-85
2021/01/05 05:12:48;;;;;;;14.88;13.35;;;;;;;6.32;66.07;101885.91;5009005;28;20136;-86
2021/01/05 05:15:52;;;;;;;17.25;15.95;;;;;;;6.62;65.22;101888.44;5010909;28;20036;-85
2021/01/05 05:18:30;;;;;;;17.42;16.13;;;;;;;6.47;65.60;101886.31;5007274;28;20046;-86
2021/01/05 05:21:29;;;;;;;20.63;18.92;;;;;;;6.74;64.98;101886.44;5010392;28;20026;-89
2021/01/05 05:23:54;;;;;;;16.63;15.27;;;;;;;6.81;64.64;101886.69;5008006;28;20044;-86
2021/01/05 05:26:53;;;;;;;15.90;14.38;;;;;;;6.50;65.79;101876.06;5010416;28;20038;-87
2021/01/05 05:29:41;;;;;;;12.35;11.27;;;;;;;6.66;65.71;101885.44;5007487;28;20420;-87
2021/01/05 05:32:21;;;;;;;16.88;15.65;;;;;;;6.73;65.15;101883.88;5009310;28;20112;-88
2021/01/05 05:35:14;;;;;;;17.10;15.70;;;;;;;6.73;65.25;101879.31;5009222;28;20034;-86
2021/01/05 05:38:12;;;;;;;15.57;14.38;;;;;;;6.97;64.57;101891.50;5008735;28;20549;-88
2021/01/05 05:40:56;;;;;;;14.95;13.60;;;;;;;6.37;65.71;101895.28;4941101;28;20111;-89
2021/01/05 05:43:56;;;;;;;13.13;11.93;;;;;;;6.68;65.69;101889.72;5008967;28;20034;-85
2021/01/05 05:46:32;;;;;;;15.75;14.45;;;;;;;6.68;65.44;101892.41;5007856;28;20113;-85
2021/01/05 05:49:04;;;;;;;14.50;13.40;;;;;;;6.80;64.97;101896.66;5011175;28;20033;-87
2021/01/05 05:51:35;;;;;;;20.48;18.88;;;;;;;6.81;65.28;101890.25;5009513;28;20029;-87
2021/01/05 05:54:21;;;;;;;19.60;18.20;;;;;;;6.45;66.33;101897.28;5024532;28;20457;-86
2021/01/05 05:57:02;;;;;;;27.67;25.73;;;;;;;6.49;65.96;101901.41;5022996;28;20036;-86
2021/01/05 05:59:36;;;;;;;17.50;16.23;;;;;;;6.55;65.97;101897.25;5021256;28;20121;-84
2021/01/05 06:02:01;;;;;;;22.02;20.30;;;;;;;6.51;65.79;101906.66;5007253;28;20033;-87
2021/01/05 06:04:27;;;;;;;17.08;15.57;;;;;;;6.57;65.69;101903.38;5009241;28;20038;-84
2021/01/05 06:06:53;;;;;;;19.73;18.17;;;;;;;6.59;65.73;101909.50;5008383;28;20444;-87
2021/01/05 06:09:18;;;;;;;19.67;18.30;;;;;;;6.36;66.06;101907.06;5007864;28;20041;-89
2021/01/05 06:11:54;;;;;;;15.82;14.45;;;;;;;6.79;65.24;101896.81;5005557;28;20083;-87
2021/01/05 06:14:20;;;;;;;10.30;9.50;;;;;;;6.45;65.95;101906.22;4991699;28;20393;-86
2021/01/05 06:16:45;;;;;;;13.77;12.75;;;;;;;6.54;65.77;101914.50;5017551;28;20030;-87
2021/01/05 06:19:10;;;;;;;11.40;10.50;;;;;;;6.46;65.81;101907.09;5007858;28;20053;-86
2021/01/05 06:21:45;;;;;;;12.77;11.70;;;;;;;6.09;67.01;101895.13;5008626;28;20030;-85
2021/01/05 06:24:55;;;;;;;10.98;10.07;;;;;;;6.52;65.91;101892.13;5006377;28;20046;-86
2021/01/05 06:27:20;;;;;;;11.88;10.93;;;;;;;6.67;65.75;101919.59;4998557;28;20493;-87
2021/01/05 06:29:46;;;;;;;11.85;10.95;;;;;;;6.64;65.43;101904.50;4990544;28;20053;-87
2021/01/05 06:32:11;;;;;;;12.23;10.25;;;;;;;6.55;66.01;101905.38;5003842;28;20030;-86
2021/01/05 06:34:37;;;;;;;11.90;10.90;;;;;;;6.57;66.10;101917.75;5009111;28;20057;-85
2021/01/05 06:37:02;;;;;;;13.93;12.75;;;;;;;6.69;65.89;101921.16;4993999;28;20117;-87
2021/01/05 06:39:28;;;;;;;15.05;13.85;;;;;;;6.49;66.36;101916.75;5006253;28;20054;-88
2021/01/05 06:41:53;;;;;;;13.70;12.60;;;;;;;7.02;65.15;101937.03;5006901;28;20773;-84
2021/01/05 06:44:19;;;;;;;15.15;13.70;;;;;;;6.62;66.40;101920.03;5006418;28;20117;-84
2021/01/05 06:46:49;;;;;;;14.15;13.15;;;;;;;6.57;66.49;101923.16;5007863;28;20030;-83
2021/01/05 06:49:15;;;;;;;12.10;10.90;;;;;;;7.06;64.73;101925.78;5006093;28;20485;-85
2021/01/05 06:51:41;;;;;;;12.48;11.18;;;;;;;6.79;65.53;101924.69;5005136;28;20123;-85
2021/01/05 06:54:07;;;;;;;14.57;13.35;;;;;;;6.76;65.81;101924.97;5010480;28;20034;-85
2021/01/05 06:56:32;;;;;;;13.82;12.63;;;;;;;6.62;66.06;101918.16;5007185;28;20025;-84
2021/01/05 06:58:58;;;;;;;15.35;14.07;;;;;;;7.06;65.55;101927.63;5004275;28;20034;-85
2021/01/05 07:01:23;;;;;;;17.80;16.30;;;;;;;6.98;65.27;101929.22;5006713;28;20034;-85
2021/01/05 07:03:49;;;;;;;18.70;17.08;;;;;;;6.63;66.15;101921.75;5007793;28;20037;-87
2021/01/05 07:06:14;;;;;;;16.60;15.23;;;;;;;6.54;66.05;101933.41;4990961;28;20037;-87
2021/01/05 07:08:39;;;;;;;26.70;24.67;;;;;;;6.73;65.90;101933.38;5008274;28;20034;-86
2021/01/05 07:11:05;;;;;;;27.23;25.00;;;;;;;6.52;66.32;101927.28;5006240;28;20030;-87
2021/01/05 07:13:30;;;;;;;23.30;21.45;;;;;;;6.75;66.06;101939.50;4990727;28;20492;-86
2021/01/05 07:15:55;;;;;;;17.08;15.48;;;;;;;6.78;65.96;101941.91;5007268;28;20042;-86
2021/01/05 07:18:21;;;;;;;16.83;15.40;;;;;;;6.99;64.66;101927.38;4972946;28;20030;-85
2021/01/05 07:20:46;;;;;;;20.65;18.65;;;;;;;6.85;65.41;101931.38;5013756;28;20034;-84
2021/01/05 07:23:12;;;;;;;17.17;15.55;;;;;;;7.08;64.70;101939.16;5006290;28;20029;-85
2021/01/05 07:25:37;;;;;;;23.50;21.75;;;;;;;6.97;65.23;101941.03;4973280;28;20042;-86
2021/01/05 07:28:03;;;;;;;30.20;27.77;;;;;;;7.04;64.83;101941.28;4990507;28;20536;-86
2021/01/05 07:30:28;;;;;;;24.40;22.20;;;;;;;6.81;65.59;101951.56;4988237;28;20030;-84
2021/01/05 07:32:54;;;;;;;28.38;26.25;;;;;;;7.03;64.77;101947.72;5004668;28;20038;-87
2021/01/05 07:35:19;;;;;;;22.27;20.45;;;;;;;6.76;65.52;101960.13;5001718;28;20041;-87
2021/01/05 07:37:44;;;;;;;26.55;24.23;;;;;;;7.17;64.43;101949.94;4989560;28;20897;-86
2021/01/05 07:40:13;;;;;;;26.58;24.50;;;;;;;6.93;64.69;101949.56;4998493;28;20045;-87
2021/01/05 07:42:38;;;;;;;19.35;17.70;;;;;;;7.10;64.57;101945.28;5007185;28;20037;-86
2021/01/05 07:45:08;;;;;;;24.73;22.67;;;;;;;7.12;64.12;101952.25;4971621;28;20061;-85
2021/01/05 07:47:36;;;;;;;27.45;25.23;;;;;;;7.06;64.10;101965.47;5006795;28;20026;-86
2021/01/05 07:50:02;;;;;;;20.23;18.38;;;;;;;6.96;64.61;101946.59;5005500;28;20472;-86
2021/01/05 07:52:37;;;;;;;18.50;16.90;;;;;;;7.09;64.23;101960.66;5008500;28;20033;-86
2021/01/05 07:55:08;;;;;;;22.65;21.05;;;;;;;7.24;63.84;101968.31;5004571;28;20108;-85
2021/01/05 07:57:34;;;;;;;26.52;24.73;;;;;;;7.05;64.34;101978.16;5006082;28;20439;-86
2021/01/05 07:59:59;;;;;;;26.67;24.77;;;;;;;7.29;63.84;101975.00;4986858;28;20041;-85
2021/01/05 08:02:33;;;;;;;27.10;25.00;;;;;;;7.22;63.61;101949.50;5003983;28;20480;-85
2021/01/05 08:05:01;;;;;;;29.55;27.27;;;;;;;7.15;64.33;101962.78;4988853;28;20124;-84
2021/01/05 08:07:27;;;;;;;18.30;16.83;;;;;;;7.22;64.14;101970.31;5005985;28;20033;-87
2021/01/05 08:09:52;;;;;;;20.33;18.92;;;;;;;7.03;64.34;101963.94;4989251;28;20042;-87
2021/01/05 08:12:19;;;;;;;16.90;15.40;;;;;;;6.72;65.08;101980.34;4972466;28;20480;-84
2021/01/05 08:14:46;;;;;;;15.18;13.98;;;;;;;7.05;64.82;101963.81;5004890;28;20042;-87
2021/01/05 08:17:15;;;;;;;13.32;12.30;;;;;;;6.78;65.18;101963.56;4988292;28;20038;-87
2021/01/05 08:19:44;;;;;;;21.92;20.27;;;;;;;7.01;64.52;101971.31;5005286;28;20038;-86
2021/01/05 08:22:11;;;;;;;20.05;18.55;;;;;;;7.45;63.24;101963.53;5006205;28;20064;-85
2021/01/05 08:24:37;;;;;;;15.30;13.98;;;;;;;7.32;63.99;101980.09;4990545;28;20813;-86
2021/01/05 08:27:05;;;;;;;19.58;18.08;;;;;;;7.03;65.03;101985.59;4988169;28;20162;-88
2021/01/05 08:29:30;;;;;;;21.73;20.02;;;;;;;7.08;64.47;101980.59;5005997;28;20093;-83
2021/01/05 08:31:56;;;;;;;16.58;15.27;;;;;;;7.14;64.36;101992.69;5004633;28;20381;-84
2021/01/05 08:34:21;;;;;;;17.52;16.02;;;;;;;6.98;65.17;101993.25;5006293;28;20049;-86
2021/01/05 08:36:46;;;;;;;15.68;14.43;;;;;;;7.32;64.17;101990.94;4987351;28;20042;-85
2021/01/05 08:39:13;;;;;;;20.98;18.88;;;;;;;7.13;64.55;101980.16;5003572;28;20041;-88
2021/01/05 08:41:43;;;;;;;14.20;13.10;;;;;;;7.19;64.39;101982.25;5003908;28;20149;-83
2021/01/05 08:44:10;;;;;;;17.52;16.23;;;;;;;7.22;64.18;101975.72;5005346;28;20030;-84
2021/01/05 08:46:35;;;;;;;13.93;12.70;;;;;;;7.33;64.03;101987.19;5006357;28;20037;-88
2021/01/05 08:49:01;;;;;;;14.63;13.38;;;;;;;7.09;64.79;101997.66;5006485;28;20034;-85
2021/01/05 08:51:33;;;;;;;14.30;13.20;;;;;;;7.25;64.49;101984.38;5009641;28;20049;-85
2021/01/05 08:53:58;;;;;;;12.32;11.15;;;;;;;7.33;64.26;101989.91;5008485;28;20041;-87
2021/01/05 08:56:29;;;;;;;19.02;17.27;;;;;;;7.07;64.46;101986.97;4991023;28;20042;-87
2021/01/05 08:58:55;;;;;;;16.92;15.60;;;;;;;7.20;64.93;101985.81;5006423;28;20045;-88
2021/01/05 09:01:21;;;;;;;16.33;14.82;;;;;;;7.22;64.43;101992.78;5005839;28;20556;-86
2021/01/05 09:03:47;;;;;;;15.55;14.25;;;;;;;6.89;65.72;101999.53;5006919;28;20037;-87
2021/01/05 09:06:18;;;;;;;17.27;15.88;;;;;;;7.14;64.72;102004.34;5007226;28;20697;-84
2021/01/05 09:08:46;;;;;;;20.67;19.23;;;;;;;6.86;65.09;101999.81;5007599;28;20558;-86
2021/01/05 09:11:28;;;;;;;17.15;15.73;;;;;;;7.30;64.26;101983.94;5008952;28;20103;-83
2021/01/05 09:14:06;;;;;;;28.17;26.00;;;;;;;7.48;63.76;101986.75;5010918;28;20025;-88
2021/01/05 09:16:32;;;;;;;12.95;11.95;;;;;;;7.34;63.78;101972.69;4991725;28;20407;-86
2021/01/05 09:19:01;;;;;;;20.45;18.95;;;;;;;7.58;63.54;101992.13;5007429;28;20292;-88
2021/01/05 09:21:29;;;;;;;21.33;19.80;;;;;;;7.53;63.15;101974.47;5002790;28;20041;-90
2021/01/05 09:24:06;;;;;;;21.08;19.50;;;;;;;7.43;63.33;101984.50;5009438;28;20375;-86
2021/01/05 09:26:34;;;;;;;25.77;23.85;;;;;;;7.30;64.08;101982.09;5007752;28;20025;-87
2021/01/05 09:29:01;;;;;;;19.45;18.05;;;;;;;7.60;63.53;101999.09;5006450;28;20038;-82
2021/01/05 09:31:27;;;;;;;15.88;14.35;;;;;;;7.20;64.01;101978.56;5009655;28;20061;-88
2021/01/05 09:33:53;;;;;;;15.73;14.43;;;;;;;7.41;63.75;101996.44;5008841;28;20054;-84
2021/01/05 09:36:18;;;;;;;17.30;15.68;;;;;;;7.42;63.57;101980.06;5008320;28;20049;-87
2021/01/05 09:38:45;;;;;;;15.63;14.30;;;;;;;7.40;64.00;101989.31;4991568;28;20052;-84
2021/01/05 09:41:26;;;;;;;13.00;11.70;;;;;;;7.37;63.78;101987.78;5007668;28;20034;-83
2021/01/05 09:43:51;;;;;;;16.27;14.80;;;;;;;7.74;63.26;101972.53;5005458;28;20049;-87
2021/01/05 09:46:18;;;;;;;16.55;15.05;;;;;;;7.39;64.43;101995.75;5009895;28;20065;-86
2021/01/05 09:48:44;;;;;;;14.38;13.20;;;;;;;7.65;64.03;102001.38;5007060;28;20037;-86
2021/01/05 09:51:10;;;;;;;12.07;10.65;;;;;;;7.49;64.21;101994.72;5008109;28;20445;-86
2021/01/05 09:53:38;;;;;;;14.50;13.10;;;;;;;7.38;64.37;101981.34;5006858;28;20045;-85
2021/01/05 09:56:04;;;;;;;11.80;10.60;;;;;;;7.49;64.42;101985.72;5007340;28;20021;-86
2021/01/05 09:58:29;;;;;;;17.67;16.17;;;;;;;7.55;63.72;101979.72;4991701;28;20443;-89
2021/01/05 10:00:55;;;;;;;18.45;16.58;;;;;;;7.41;64.32;101982.91;5007786;28;20029;-88
2021/01/05 10:03:20;;;;;;;19.17;17.25;;;;;;;7.45;64.23;101981.63;5000594;28;20030;-86
2021/01/05 10:05:45;;;;;;;30.08;27.60;;;;;;;7.83;63.67;102001.41;4966901;28;20120;-85
2021/01/05 10:08:11;;;;;;;20.48;18.17;;;;;;;7.52;63.85;101989.03;5000844;28;20042;-86
2021/01/05 10:10:39;;;;;;;22.50;20.45;;;;;;;7.63;63.89;102003.34;4984552;28;20083;-87
2021/01/05 10:13:05;;;;;;;21.52;19.63;;;;;;;7.80;63.50;101983.63;4984527;28;20037;-85
2021/01/05 10:15:33;;;;;;;20.08;18.35;;;;;;;7.81;63.54;101998.84;5002430;28;20616;-85
2021/01/05 10:18:03;;;;;;;25.85;23.50;;;;;;;7.64;63.14;101972.56;4968948;28;20668;-88
2021/01/05 10:20:28;;;;;;;31.25;28.75;;;;;;;7.67;63.43;101983.13;5001897;28;20037;-84
2021/01/05 10:22:54;;;;;;;30.08;27.60;;;;;;;7.82;63.19;101988.91;4982610;28;20121;-86
2021/01/05 10:25:19;;;;;;;28.45;26.20;;;;;;;7.59;63.69;101988.44;4976733;28;20069;-85
2021/01/05 10:27:45;;;;;;;27.27;25.08;;;;;;;7.33;63.73;101976.38;4996607;28;20377;-88
2021/01/05 10:30:11;;;;;;;23.38;21.38;;;;;;;7.47;64.00;101994.00;4985264;28;20038;-88
2021/01/05 10:32:36;;;;;;;20.60;18.70;;;;;;;7.12;64.08;101973.03;4983668;28;20447;-89
2021/01/05 10:35:03;;;;;;;25.88;23.85;;;;;;;7.06;64.75;101984.41;5001088;28;20484;-86
2021/01/05 10:37:28;;;;;;;21.83;19.83;;;;;;;7.46;63.98;101983.31;5002179;28;20054;-90
2021/01/05 10:39:54;;;;;;;20.63;19.13;;;;;;;7.16;64.33;101988.81;5000913;28;20484;-89
2021/01/05 10:42:19;;;;;;;32.95;30.30;;;;;;;7.54;63.95;101999.69;4984644;28;20033;-86
2021/01/05 10:44:45;;;;;;;22.55;20.52;;;;;;;7.63;63.91;101989.81;5000350;28;20057;-85
2021/01/05 10:47:14;;;;;;;17.30;15.95;;;;;;;7.48;63.89;101982.19;5000224;28;20053;-87
2021/01/05 10:49:40;;;;;;;18.65;16.95;;;;;;;7.45;64.00;101989.75;4984491;28;20033;-87
2021/01/05 10:52:05;;;;;;;16.67;15.00;;;;;;;7.40;63.90;101981.22;5001637;28;20034;-87
2021/01/05 10:54:34;;;;;;;17.90;16.30;;;;;;;7.39;64.10;101995.75;4983198;28;20042;-87
2021/01/05 10:57:01;;;;;;;20.30;18.45;;;;;;;7.70;63.56;101999.06;4984469;28;20041;-87
2021/01/05 10:59:29;;;;;;;13.80;12.40;;;;;;;7.80;63.44;101999.88;5000350;28;20029;-86
2021/01/05 11:01:58;;;;;;;13.98;12.32;;;;;;;7.66;63.80;101986.81;4974790;28;20593;-89
2021/01/05 11:04:25;;;;;;;12.95;11.70;;;;;;;7.76;63.33;101992.22;5000420;28;20603;-88
2021/01/05 11:06:58;;;;;;;14.00;12.68;;;;;;;7.54;63.92;101969.91;5000356;28;20037;-87
2021/01/05 11:09:24;;;;;;;10.23;8.75;;;;;;;7.65;63.40;101974.28;4983735;28;20072;-86
2021/01/05 11:12:01;;;;;;;9.57;8.77;;;;;;;7.58;63.71;101978.59;5000402;28;20120;-88
2021/01/05 11:14:27;;;;;;;13.43;12.25;;;;;;;7.56;63.85;101991.44;4999840;28;20133;-87
2021/01/05 11:16:53;;;;;;;13.25;12.15;;;;;;;7.21;63.95;101980.25;4999595;28;20022;-86
2021/01/05 11:19:19;;;;;;;14.35;13.25;;;;;;;7.65;63.09;101987.84;5000892;28;20048;-85
2021/01/05 11:21:53;;;;;;;11.40;10.40;;;;;;;7.46;63.57;101981.50;4998599;28;20464;-88
2021/01/05 11:24:20;;;;;;;8.73;8.07;;;;;;;7.53;63.35;101977.16;5000094;28;20041;-89
2021/01/05 11:26:46;;;;;;;16.40;15.02;;;;;;;7.50;63.37;101979.34;4998509;28;20121;-89
2021/01/05 11:29:12;;;;;;;16.00;14.77;;;;;;;7.35;63.46;101973.53;4997660;28;20026;-88
2021/01/05 11:31:37;;;;;;;14.60;13.50;;;;;;;7.42;63.63;101974.66;5001920;28;20041;-89
2021/01/05 11:34:03;;;;;;;19.05;17.67;;;;;;;7.38;63.79;101966.97;4983191;28;20108;-90